sensor_id;sensor_type;location;lat;lon;timestamp;temperature;humidity
2749;DHT22;1382;52.142;11.618;2023-06-22T00:01:05;27.20;46.30
2749;DHT22;1382;52.142;11.618;2023-06-22T00:03:31;27.20;46.10
2749;DHT22;1382;52.142;11.618;2023-06-22T00:05:58;27.10;46.00
2749;DHT22;1382;52.142;11.618;2023-06-22T00:08:25;27.10;45.80
2749;DHT22;1382;52.142;11.618;2023-06-22T00:10:52;27.00;45.60
2749;DHT22;1382;52.142;11.618;2023-06-22T00:13:20;27.00;46.10
2749;DHT22;1382;52.142;11.618;2023-06-22T00:15:47;27.00;46.00
2749;DHT22;1382;52.142;11.618;2023-06-22T00:18:14;26.90;45.60
2749;DHT22;1382;52.142;11.618;2023-06-22T00:20:41;26.90;45.80
2749;DHT22;1382;52.142;11.618;2023-06-22T00:23:08;26.80;45.90
2749;DHT22;1382;52.142;11.618;2023-06-22T00:25:35;26.70;45.90
2749;DHT22;1382;52.142;11.618;2023-06-22T00:28:02;26.70;46.10
2749;DHT22;1382;52.142;11.618;2023-06-22T00:30:31;26.70;46.70
2749;DHT22;1382;52.142;11.618;2023-06-22T00:32:58;26.60;47.00
2749;DHT22;1382;52.142;11.618;2023-06-22T00:35:26;26.60;46.90
2749;DHT22;1382;52.142;11.618;2023-06-22T00:37:53;26.60;47.50
2749;DHT22;1382;52.142;11.618;2023-06-22T00:40:20;26.50;47.60
2749;DHT22;1382;52.142;11.618;2023-06-22T00:42:46;26.50;46.70
2749;DHT22;1382;52.142;11.618;2023-06-22T00:45:13;26.40;47.00
2749;DHT22;1382;52.142;11.618;2023-06-22T00:47:41;26.40;46.50
2749;DHT22;1382;52.142;11.618;2023-06-22T00:50:09;26.40;47.10
2749;DHT22;1382;52.142;11.618;2023-06-22T00:52:41;26.30;47.50
2749;DHT22;1382;52.142;11.618;2023-06-22T00:55:09;26.30;48.80
2749;DHT22;1382;52.142;11.618;2023-06-22T00:57:36;26.30;47.20
2749;DHT22;1382;52.142;11.618;2023-06-22T01:00:04;26.20;46.90
2749;DHT22;1382;52.142;11.618;2023-06-22T01:02:32;26.20;46.70
2749;DHT22;1382;52.142;11.618;2023-06-22T01:05:00;26.10;46.60
2749;DHT22;1382;52.142;11.618;2023-06-22T01:07:33;26.10;47.00
2749;DHT22;1382;52.142;11.618;2023-06-22T01:10:07;26.10;47.40
2749;DHT22;1382;52.142;11.618;2023-06-22T01:12:38;26.00;46.80
2749;DHT22;1382;52.142;11.618;2023-06-22T01:15:10;26.00;46.70
2749;DHT22;1382;52.142;11.618;2023-06-22T01:17:41;25.90;46.90
2749;DHT22;1382;52.142;11.618;2023-06-22T01:20:13;25.90;47.10
2749;DHT22;1382;52.142;11.618;2023-06-22T01:22:49;25.90;47.50
2749;DHT22;1382;52.142;11.618;2023-06-22T01:25:20;25.80;48.70
2749;DHT22;1382;52.142;11.618;2023-06-22T01:27:53;25.80;48.90
2749;DHT22;1382;52.142;11.618;2023-06-22T01:30:24;25.90;48.40
2749;DHT22;1382;52.142;11.618;2023-06-22T01:32:54;25.70;48.00
2749;DHT22;1382;52.142;11.618;2023-06-22T01:35:22;25.70;47.50
2749;DHT22;1382;52.142;11.618;2023-06-22T01:37:49;25.60;47.10
2749;DHT22;1382;52.142;11.618;2023-06-22T01:40:17;25.60;47.00
2749;DHT22;1382;52.142;11.618;2023-06-22T01:42:45;25.50;47.00
2749;DHT22;1382;52.142;11.618;2023-06-22T01:45:12;25.50;47.50
2749;DHT22;1382;52.142;11.618;2023-06-22T01:47:41;25.50;47.60
2749;DHT22;1382;52.142;11.618;2023-06-22T01:50:09;25.50;48.10
2749;DHT22;1382;52.142;11.618;2023-06-22T01:52:36;25.50;47.50
2749;DHT22;1382;52.142;11.618;2023-06-22T01:55:03;25.50;46.90
2749;DHT22;1382;52.142;11.618;2023-06-22T01:57:30;25.40;47.00
2749;DHT22;1382;52.142;11.618;2023-06-22T02:00:00;25.30;47.90
2749;DHT22;1382;52.142;11.618;2023-06-22T02:02:30;25.30;47.80
2749;DHT22;1382;52.142;11.618;2023-06-22T02:05:05;25.30;47.80
2749;DHT22;1382;52.142;11.618;2023-06-22T02:07:36;25.20;47.70
2749;DHT22;1382;52.142;11.618;2023-06-22T02:10:07;25.20;47.80
2749;DHT22;1382;52.142;11.618;2023-06-22T02:12:35;25.20;47.70
2749;DHT22;1382;52.142;11.618;2023-06-22T02:15:03;25.20;47.60
2749;DHT22;1382;52.142;11.618;2023-06-22T02:17:30;25.10;47.50
2749;DHT22;1382;52.142;11.618;2023-06-22T02:19:57;25.10;47.50
2749;DHT22;1382;52.142;11.618;2023-06-22T02:22:25;25.10;47.80
2749;DHT22;1382;52.142;11.618;2023-06-22T02:24:51;25.00;48.30
2749;DHT22;1382;52.142;11.618;2023-06-22T02:27:18;25.00;48.70
2749;DHT22;1382;52.142;11.618;2023-06-22T02:29:45;25.00;49.10
2749;DHT22;1382;52.142;11.618;2023-06-22T02:32:12;24.90;49.30
2749;DHT22;1382;52.142;11.618;2023-06-22T02:34:38;24.90;48.80
2749;DHT22;1382;52.142;11.618;2023-06-22T02:37:05;24.90;49.00
2749;DHT22;1382;52.142;11.618;2023-06-22T02:39:33;24.90;47.90
2749;DHT22;1382;52.142;11.618;2023-06-22T02:42:00;24.80;48.30
2749;DHT22;1382;52.142;11.618;2023-06-22T02:44:27;24.80;47.80
2749;DHT22;1382;52.142;11.618;2023-06-22T02:46:54;24.80;48.00
2749;DHT22;1382;52.142;11.618;2023-06-22T02:49:21;24.70;47.90
2749;DHT22;1382;52.142;11.618;2023-06-22T02:51:48;24.70;48.30
2749;DHT22;1382;52.142;11.618;2023-06-22T02:54:15;24.70;48.40
2749;DHT22;1382;52.142;11.618;2023-06-22T02:56:43;24.70;48.30
2749;DHT22;1382;52.142;11.618;2023-06-22T02:59:10;24.60;47.80
2749;DHT22;1382;52.142;11.618;2023-06-22T03:01:37;24.60;48.00
2749;DHT22;1382;52.142;11.618;2023-06-22T03:04:04;24.60;48.80
2749;DHT22;1382;52.142;11.618;2023-06-22T03:06:31;24.70;48.60
2749;DHT22;1382;52.142;11.618;2023-06-22T03:09:00;24.60;48.50
2749;DHT22;1382;52.142;11.618;2023-06-22T03:11:27;24.60;48.70
2749;DHT22;1382;52.142;11.618;2023-06-22T03:13:55;24.50;48.80
2749;DHT22;1382;52.142;11.618;2023-06-22T03:16:22;24.50;48.00
2749;DHT22;1382;52.142;11.618;2023-06-22T03:18:49;24.50;48.80
2749;DHT22;1382;52.142;11.618;2023-06-22T03:21:15;24.50;48.60
2749;DHT22;1382;52.142;11.618;2023-06-22T03:23:42;24.40;48.70
2749;DHT22;1382;52.142;11.618;2023-06-22T03:26:09;24.40;48.10
2749;DHT22;1382;52.142;11.618;2023-06-22T03:28:37;24.40;48.30
2749;DHT22;1382;52.142;11.618;2023-06-22T03:31:05;24.40;47.20
2749;DHT22;1382;52.142;11.618;2023-06-22T03:33:32;24.40;47.60
2749;DHT22;1382;52.142;11.618;2023-06-22T03:35:58;24.40;47.40
2749;DHT22;1382;52.142;11.618;2023-06-22T03:38:25;24.40;48.70
2749;DHT22;1382;52.142;11.618;2023-06-22T03:40:52;24.60;48.10
2749;DHT22;1382;52.142;11.618;2023-06-22T03:43:19;24.40;47.90
2749;DHT22;1382;52.142;11.618;2023-06-22T03:45:46;24.40;47.90
2749;DHT22;1382;52.142;11.618;2023-06-22T03:48:14;24.40;48.10
2749;DHT22;1382;52.142;11.618;2023-06-22T03:50:41;24.50;47.70
2749;DHT22;1382;52.142;11.618;2023-06-22T03:53:07;24.50;47.30
2749;DHT22;1382;52.142;11.618;2023-06-22T03:55:34;24.50;47.30
2749;DHT22;1382;52.142;11.618;2023-06-22T03:58:01;24.50;47.30
2749;DHT22;1382;52.142;11.618;2023-06-22T04:00:28;24.50;47.50
2749;DHT22;1382;52.142;11.618;2023-06-22T04:02:55;24.50;47.60
2749;DHT22;1382;52.142;11.618;2023-06-22T04:05:23;24.60;47.90
2749;DHT22;1382;52.142;11.618;2023-06-22T04:07:50;24.60;47.90
2749;DHT22;1382;52.142;11.618;2023-06-22T04:10:17;24.60;47.70
2749;DHT22;1382;52.142;11.618;2023-06-22T04:12:44;24.70;47.60
2749;DHT22;1382;52.142;11.618;2023-06-22T04:15:11;24.60;47.80
2749;DHT22;1382;52.142;11.618;2023-06-22T04:17:37;24.60;47.40
2749;DHT22;1382;52.142;11.618;2023-06-22T04:20:05;24.70;47.70
2749;DHT22;1382;52.142;11.618;2023-06-22T04:22:34;24.70;47.60
2749;DHT22;1382;52.142;11.618;2023-06-22T04:25:01;24.80;47.60
2749;DHT22;1382;52.142;11.618;2023-06-22T04:27:27;24.70;47.20
2749;DHT22;1382;52.142;11.618;2023-06-22T04:29:54;24.80;47.50
2749;DHT22;1382;52.142;11.618;2023-06-22T04:32:21;24.80;47.70
2749;DHT22;1382;52.142;11.618;2023-06-22T04:34:48;25.00;48.10
2749;DHT22;1382;52.142;11.618;2023-06-22T04:37:14;24.90;47.70
2749;DHT22;1382;52.142;11.618;2023-06-22T04:39:43;24.90;48.60
2749;DHT22;1382;52.142;11.618;2023-06-22T04:42:11;24.90;49.50
2749;DHT22;1382;52.142;11.618;2023-06-22T04:44:38;24.90;49.60
2749;DHT22;1382;52.142;11.618;2023-06-22T04:47:05;24.90;47.90
2749;DHT22;1382;52.142;11.618;2023-06-22T04:49:32;25.00;47.60
2749;DHT22;1382;52.142;11.618;2023-06-22T04:51:59;25.00;47.90
2749;DHT22;1382;52.142;11.618;2023-06-22T04:54:26;25.10;48.40
2749;DHT22;1382;52.142;11.618;2023-06-22T04:56:54;25.20;48.70
2749;DHT22;1382;52.142;11.618;2023-06-22T04:59:21;25.20;48.70
2749;DHT22;1382;52.142;11.618;2023-06-22T05:01:48;25.20;48.30
2749;DHT22;1382;52.142;11.618;2023-06-22T05:04:15;25.30;48.70
2749;DHT22;1382;52.142;11.618;2023-06-22T05:06:42;25.40;48.80
2749;DHT22;1382;52.142;11.618;2023-06-22T05:09:09;25.40;48.80
2749;DHT22;1382;52.142;11.618;2023-06-22T05:11:36;25.50;48.80
2749;DHT22;1382;52.142;11.618;2023-06-22T05:14:04;25.50;48.60
2749;DHT22;1382;52.142;11.618;2023-06-22T05:16:30;25.70;48.70
2749;DHT22;1382;52.142;11.618;2023-06-22T05:18:57;25.70;48.30
2749;DHT22;1382;52.142;11.618;2023-06-22T05:21:26;25.80;48.50
2749;DHT22;1382;52.142;11.618;2023-06-22T05:23:53;25.80;48.30
2749;DHT22;1382;52.142;11.618;2023-06-22T05:26:21;25.90;48.40
2749;DHT22;1382;52.142;11.618;2023-06-22T05:28:48;25.90;48.20
2749;DHT22;1382;52.142;11.618;2023-06-22T05:31:16;26.00;48.50
2749;DHT22;1382;52.142;11.618;2023-06-22T05:33:44;26.00;48.30
2749;DHT22;1382;52.142;11.618;2023-06-22T05:36:10;26.10;48.60
2749;DHT22;1382;52.142;11.618;2023-06-22T05:38:37;26.20;48.70
2749;DHT22;1382;52.142;11.618;2023-06-22T05:41:04;26.20;48.20
2749;DHT22;1382;52.142;11.618;2023-06-22T05:43:32;26.20;48.30
2749;DHT22;1382;52.142;11.618;2023-06-22T05:46:01;26.30;48.90
2749;DHT22;1382;52.142;11.618;2023-06-22T05:48:29;26.30;48.90
2749;DHT22;1382;52.142;11.618;2023-06-22T05:50:56;26.40;49.40
2749;DHT22;1382;52.142;11.618;2023-06-22T05:53:23;26.40;49.60
2749;DHT22;1382;52.142;11.618;2023-06-22T05:55:50;26.50;49.60
2749;DHT22;1382;52.142;11.618;2023-06-22T05:58:19;26.50;49.30
2749;DHT22;1382;52.142;11.618;2023-06-22T06:00:46;26.60;49.50
2749;DHT22;1382;52.142;11.618;2023-06-22T06:03:13;26.70;49.50
2749;DHT22;1382;52.142;11.618;2023-06-22T06:05:43;26.80;49.30
2749;DHT22;1382;52.142;11.618;2023-06-22T06:08:10;26.90;49.20
2749;DHT22;1382;52.142;11.618;2023-06-22T06:10:37;26.90;49.30
2749;DHT22;1382;52.142;11.618;2023-06-22T06:13:04;27.00;49.30
2749;DHT22;1382;52.142;11.618;2023-06-22T06:15:32;27.00;49.30
2749;DHT22;1382;52.142;11.618;2023-06-22T06:17:59;27.10;49.00
2749;DHT22;1382;52.142;11.618;2023-06-22T06:20:26;27.20;49.20
2749;DHT22;1382;52.142;11.618;2023-06-22T06:22:55;27.20;49.10
2749;DHT22;1382;52.142;11.618;2023-06-22T06:25:22;27.30;49.10
2749;DHT22;1382;52.142;11.618;2023-06-22T06:27:50;27.30;48.80
2749;DHT22;1382;52.142;11.618;2023-06-22T06:30:18;27.40;48.60
2749;DHT22;1382;52.142;11.618;2023-06-22T06:32:46;27.50;48.90
2749;DHT22;1382;52.142;11.618;2023-06-22T06:35:14;27.50;48.60
2749;DHT22;1382;52.142;11.618;2023-06-22T06:37:43;27.60;48.80
2749;DHT22;1382;52.142;11.618;2023-06-22T06:40:13;27.60;48.80
2749;DHT22;1382;52.142;11.618;2023-06-22T06:42:41;27.70;48.90
2749;DHT22;1382;52.142;11.618;2023-06-22T06:45:09;27.80;49.00
2749;DHT22;1382;52.142;11.618;2023-06-22T06:47:36;27.90;49.30
2749;DHT22;1382;52.142;11.618;2023-06-22T06:50:04;27.90;49.30
2749;DHT22;1382;52.142;11.618;2023-06-22T06:52:31;28.10;49.60
2749;DHT22;1382;52.142;11.618;2023-06-22T06:54:58;28.20;49.30
2749;DHT22;1382;52.142;11.618;2023-06-22T06:57:26;28.40;49.20
2749;DHT22;1382;52.142;11.618;2023-06-22T06:59:53;28.50;48.70
2749;DHT22;1382;52.142;11.618;2023-06-22T07:02:20;28.60;49.00
2749;DHT22;1382;52.142;11.618;2023-06-22T07:04:47;28.80;48.30
2749;DHT22;1382;52.142;11.618;2023-06-22T07:07:14;29.00;48.50
2749;DHT22;1382;52.142;11.618;2023-06-22T07:09:40;29.10;48.30
2749;DHT22;1382;52.142;11.618;2023-06-22T07:12:08;29.30;48.10
2749;DHT22;1382;52.142;11.618;2023-06-22T07:14:36;29.40;47.60
2749;DHT22;1382;52.142;11.618;2023-06-22T07:17:03;29.60;47.40
2749;DHT22;1382;52.142;11.618;2023-06-22T07:19:30;29.60;47.30
2749;DHT22;1382;52.142;11.618;2023-06-22T07:21:57;29.80;46.90
2749;DHT22;1382;52.142;11.618;2023-06-22T07:24:24;30.00;47.00
2749;DHT22;1382;52.142;11.618;2023-06-22T07:26:51;30.10;46.50
2749;DHT22;1382;52.142;11.618;2023-06-22T07:29:18;30.10;46.10
2749;DHT22;1382;52.142;11.618;2023-06-22T07:31:48;30.30;45.80
2749;DHT22;1382;52.142;11.618;2023-06-22T07:34:16;30.40;45.60
2749;DHT22;1382;52.142;11.618;2023-06-22T07:36:42;30.40;45.70
2749;DHT22;1382;52.142;11.618;2023-06-22T07:39:09;30.50;45.40
2749;DHT22;1382;52.142;11.618;2023-06-22T07:41:36;30.60;45.30
2749;DHT22;1382;52.142;11.618;2023-06-22T07:44:03;30.60;45.30
2749;DHT22;1382;52.142;11.618;2023-06-22T07:46:30;30.70;45.00
2749;DHT22;1382;52.142;11.618;2023-06-22T07:48:58;30.80;45.00
2749;DHT22;1382;52.142;11.618;2023-06-22T07:51:25;30.90;44.90
2749;DHT22;1382;52.142;11.618;2023-06-22T07:53:52;31.00;44.40
2749;DHT22;1382;52.142;11.618;2023-06-22T07:56:18;31.10;44.80
2749;DHT22;1382;52.142;11.618;2023-06-22T07:58:46;31.20;44.60
2749;DHT22;1382;52.142;11.618;2023-06-22T08:01:13;31.30;44.40
2749;DHT22;1382;52.142;11.618;2023-06-22T08:03:40;31.50;43.70
2749;DHT22;1382;52.142;11.618;2023-06-22T08:06:09;31.60;43.90
2749;DHT22;1382;52.142;11.618;2023-06-22T08:08:36;31.70;43.40
2749;DHT22;1382;52.142;11.618;2023-06-22T08:11:03;31.80;43.00
2749;DHT22;1382;52.142;11.618;2023-06-22T08:13:30;32.00;43.40
2749;DHT22;1382;52.142;11.618;2023-06-22T08:15:57;32.00;43.00
2749;DHT22;1382;52.142;11.618;2023-06-22T08:18:23;32.10;43.50
2749;DHT22;1382;52.142;11.618;2023-06-22T08:20:50;32.20;42.50
2749;DHT22;1382;52.142;11.618;2023-06-22T08:23:18;32.40;42.40
2749;DHT22;1382;52.142;11.618;2023-06-22T08:25:45;32.40;42.30
2749;DHT22;1382;52.142;11.618;2023-06-22T08:28:12;32.40;41.70
2749;DHT22;1382;52.142;11.618;2023-06-22T08:30:39;32.60;42.20
2749;DHT22;1382;52.142;11.618;2023-06-22T08:33:05;32.60;42.50
2749;DHT22;1382;52.142;11.618;2023-06-22T08:35:32;32.80;42.10
2749;DHT22;1382;52.142;11.618;2023-06-22T08:37:59;33.00;41.80
2749;DHT22;1382;52.142;11.618;2023-06-22T08:40:27;33.10;42.90
2749;DHT22;1382;52.142;11.618;2023-06-22T08:42:54;33.30;42.20
2749;DHT22;1382;52.142;11.618;2023-06-22T08:45:21;33.40;42.40
2749;DHT22;1382;52.142;11.618;2023-06-22T08:47:48;33.60;41.90
2749;DHT22;1382;52.142;11.618;2023-06-22T08:50:15;33.80;41.40
2749;DHT22;1382;52.142;11.618;2023-06-22T08:52:42;33.90;41.20
2749;DHT22;1382;52.142;11.618;2023-06-22T08:55:09;34.00;41.00
2749;DHT22;1382;52.142;11.618;2023-06-22T08:57:38;34.10;40.90
2749;DHT22;1382;52.142;11.618;2023-06-22T09:00:06;34.30;40.40
2749;DHT22;1382;52.142;11.618;2023-06-22T09:02:33;34.40;40.20
2749;DHT22;1382;52.142;11.618;2023-06-22T09:05:04;34.60;40.30
2749;DHT22;1382;52.142;11.618;2023-06-22T09:07:31;34.70;39.90
2749;DHT22;1382;52.142;11.618;2023-06-22T09:09:57;34.80;40.10
2749;DHT22;1382;52.142;11.618;2023-06-22T09:12:27;34.90;39.50
2749;DHT22;1382;52.142;11.618;2023-06-22T09:14:55;35.10;39.80
2749;DHT22;1382;52.142;11.618;2023-06-22T09:17:22;35.20;39.50
2749;DHT22;1382;52.142;11.618;2023-06-22T09:19:49;35.30;39.40
2749;DHT22;1382;52.142;11.618;2023-06-22T09:22:16;35.40;39.40
2749;DHT22;1382;52.142;11.618;2023-06-22T09:24:43;35.50;39.40
2749;DHT22;1382;52.142;11.618;2023-06-22T09:27:09;35.60;38.30
2749;DHT22;1382;52.142;11.618;2023-06-22T09:29:36;35.80;38.40
2749;DHT22;1382;52.142;11.618;2023-06-22T09:32:05;35.90;38.80
2749;DHT22;1382;52.142;11.618;2023-06-22T09:34:32;35.90;38.40
2749;DHT22;1382;52.142;11.618;2023-06-22T09:36:59;36.10;38.90
2749;DHT22;1382;52.142;11.618;2023-06-22T09:39:26;36.10;38.30
2749;DHT22;1382;52.142;11.618;2023-06-22T09:41:53;36.20;37.90
2749;DHT22;1382;52.142;11.618;2023-06-22T09:44:19;36.30;37.80
2749;DHT22;1382;52.142;11.618;2023-06-22T09:46:46;36.30;37.80
2749;DHT22;1382;52.142;11.618;2023-06-22T09:49:14;36.40;37.60
2749;DHT22;1382;52.142;11.618;2023-06-22T09:51:41;36.40;37.50
2749;DHT22;1382;52.142;11.618;2023-06-22T09:54:08;36.40;37.10
2749;DHT22;1382;52.142;11.618;2023-06-22T09:56:35;36.40;37.20
2749;DHT22;1382;52.142;11.618;2023-06-22T09:59:01;36.50;37.40
2749;DHT22;1382;52.142;11.618;2023-06-22T10:01:44;36.60;37.20
2749;DHT22;1382;52.142;11.618;2023-06-22T10:04:11;36.50;37.20
2749;DHT22;1382;52.142;11.618;2023-06-22T10:06:39;36.50;37.30
2749;DHT22;1382;52.142;11.618;2023-06-22T10:09:06;36.60;37.00
2749;DHT22;1382;52.142;11.618;2023-06-22T10:11:33;36.60;37.60
2749;DHT22;1382;52.142;11.618;2023-06-22T10:14:00;36.70;38.30
2749;DHT22;1382;52.142;11.618;2023-06-22T10:16:30;36.70;37.40
2749;DHT22;1382;52.142;11.618;2023-06-22T10:18:57;36.80;37.30
2749;DHT22;1382;52.142;11.618;2023-06-22T10:21:24;36.80;37.50
2749;DHT22;1382;52.142;11.618;2023-06-22T10:23:52;36.90;37.20
2749;DHT22;1382;52.142;11.618;2023-06-22T10:26:19;36.90;36.80
2749;DHT22;1382;52.142;11.618;2023-06-22T10:28:46;37.00;36.80
2749;DHT22;1382;52.142;11.618;2023-06-22T10:31:12;37.10;36.50
2749;DHT22;1382;52.142;11.618;2023-06-22T10:33:39;37.10;36.30
2749;DHT22;1382;52.142;11.618;2023-06-22T10:36:06;37.20;36.20
2749;DHT22;1382;52.142;11.618;2023-06-22T10:38:33;37.20;36.50
2749;DHT22;1382;52.142;11.618;2023-06-22T10:41:01;37.20;35.90
2749;DHT22;1382;52.142;11.618;2023-06-22T10:43:28;37.20;35.90
2749;DHT22;1382;52.142;11.618;2023-06-22T10:45:55;37.30;36.70
2749;DHT22;1382;52.142;11.618;2023-06-22T10:48:21;37.30;36.40
2749;DHT22;1382;52.142;11.618;2023-06-22T10:50:48;37.40;35.80
2749;DHT22;1382;52.142;11.618;2023-06-22T10:53:15;37.40;35.30
2749;DHT22;1382;52.142;11.618;2023-06-22T10:55:42;37.50;36.00
2749;DHT22;1382;52.142;11.618;2023-06-22T10:58:24;37.50;36.40
2749;DHT22;1382;52.142;11.618;2023-06-22T11:00:51;37.50;35.80
2749;DHT22;1382;52.142;11.618;2023-06-22T11:03:18;37.60;36.20
2749;DHT22;1382;52.142;11.618;2023-06-22T11:05:45;37.60;36.20
2749;DHT22;1382;52.142;11.618;2023-06-22T11:08:12;37.60;36.90
2749;DHT22;1382;52.142;11.618;2023-06-22T11:10:38;37.70;36.30
2749;DHT22;1382;52.142;11.618;2023-06-22T11:13:05;37.80;36.00
2749;DHT22;1382;52.142;11.618;2023-06-22T11:15:33;37.90;36.40
2749;DHT22;1382;52.142;11.618;2023-06-22T11:18:00;38.10;36.30
2749;DHT22;1382;52.142;11.618;2023-06-22T11:20:27;38.10;36.40
2749;DHT22;1382;52.142;11.618;2023-06-22T11:22:54;38.20;35.90
2749;DHT22;1382;52.142;11.618;2023-06-22T11:25:21;38.20;35.50
2749;DHT22;1382;52.142;11.618;2023-06-22T11:27:48;38.30;35.50
2749;DHT22;1382;52.142;11.618;2023-06-22T11:30:14;38.40;35.40
2749;DHT22;1382;52.142;11.618;2023-06-22T11:32:42;38.40;35.60
2749;DHT22;1382;52.142;11.618;2023-06-22T11:35:09;38.50;35.20
2749;DHT22;1382;52.142;11.618;2023-06-22T11:37:36;38.60;35.40
2749;DHT22;1382;52.142;11.618;2023-06-22T11:40:04;38.70;35.40
2749;DHT22;1382;52.142;11.618;2023-06-22T11:42:33;38.80;34.20
2749;DHT22;1382;52.142;11.618;2023-06-22T11:45:00;38.80;34.90
2749;DHT22;1382;52.142;11.618;2023-06-22T11:47:27;38.80;34.50
2749;DHT22;1382;52.142;11.618;2023-06-22T11:49:55;38.80;34.30
2749;DHT22;1382;52.142;11.618;2023-06-22T11:52:21;38.80;34.10
2749;DHT22;1382;52.142;11.618;2023-06-22T11:54:48;38.70;34.30
2749;DHT22;1382;52.142;11.618;2023-06-22T11:57:15;38.80;34.80
2749;DHT22;1382;52.142;11.618;2023-06-22T11:59:42;38.80;34.50
2749;DHT22;1382;52.142;11.618;2023-06-22T12:02:09;38.70;34.20
2749;DHT22;1382;52.142;11.618;2023-06-22T12:04:35;38.70;34.40
2749;DHT22;1382;52.142;11.618;2023-06-22T12:07:04;38.80;34.20
2749;DHT22;1382;52.142;11.618;2023-06-22T12:09:30;38.80;33.80
2749;DHT22;1382;52.142;11.618;2023-06-22T12:11:57;38.70;33.40
2749;DHT22;1382;52.142;11.618;2023-06-22T12:14:24;38.80;33.80
2749;DHT22;1382;52.142;11.618;2023-06-22T12:16:51;38.80;34.00
2749;DHT22;1382;52.142;11.618;2023-06-22T12:19:18;38.70;33.40
2749;DHT22;1382;52.142;11.618;2023-06-22T12:21:44;38.70;34.20
2749;DHT22;1382;52.142;11.618;2023-06-22T12:24:12;38.70;33.90
2749;DHT22;1382;52.142;11.618;2023-06-22T12:26:39;38.60;34.10
2749;DHT22;1382;52.142;11.618;2023-06-22T12:29:06;38.60;33.80
2749;DHT22;1382;52.142;11.618;2023-06-22T12:31:33;38.60;34.20
2749;DHT22;1382;52.142;11.618;2023-06-22T12:34:00;38.60;34.30
2749;DHT22;1382;52.142;11.618;2023-06-22T12:36:26;38.70;34.40
2749;DHT22;1382;52.142;11.618;2023-06-22T12:38:53;38.70;34.70
2749;DHT22;1382;52.142;11.618;2023-06-22T12:41:23;38.80;34.50
2749;DHT22;1382;52.142;11.618;2023-06-22T12:43:50;38.80;34.10
2749;DHT22;1382;52.142;11.618;2023-06-22T12:46:17;38.90;34.60
2749;DHT22;1382;52.142;11.618;2023-06-22T12:48:43;38.90;34.40
2749;DHT22;1382;52.142;11.618;2023-06-22T12:51:10;39.00;34.20
2749;DHT22;1382;52.142;11.618;2023-06-22T12:53:37;39.10;34.40
2749;DHT22;1382;52.142;11.618;2023-06-22T12:56:04;39.10;34.00
2749;DHT22;1382;52.142;11.618;2023-06-22T12:58:32;39.20;33.50
2749;DHT22;1382;52.142;11.618;2023-06-22T13:00:59;39.20;33.70
2749;DHT22;1382;52.142;11.618;2023-06-22T13:03:26;39.30;33.90
2749;DHT22;1382;52.142;11.618;2023-06-22T13:05:53;39.40;34.10
2749;DHT22;1382;52.142;11.618;2023-06-22T13:08:19;39.50;33.70
2749;DHT22;1382;52.142;11.618;2023-06-22T13:10:47;39.50;34.00
2749;DHT22;1382;52.142;11.618;2023-06-22T13:13:14;39.60;33.10
2749;DHT22;1382;52.142;11.618;2023-06-22T13:15:42;39.60;33.40
2749;DHT22;1382;52.142;11.618;2023-06-22T13:18:09;39.70;33.30
2749;DHT22;1382;52.142;11.618;2023-06-22T13:20:36;39.70;33.40
2749;DHT22;1382;52.142;11.618;2023-06-22T13:23:02;39.70;33.20
2749;DHT22;1382;52.142;11.618;2023-06-22T13:25:29;39.80;32.80
2749;DHT22;1382;52.142;11.618;2023-06-22T13:27:56;39.90;33.20
2749;DHT22;1382;52.142;11.618;2023-06-22T13:30:23;39.90;32.80
2749;DHT22;1382;52.142;11.618;2023-06-22T13:32:51;39.90;32.50
2749;DHT22;1382;52.142;11.618;2023-06-22T13:35:18;39.90;32.40
2749;DHT22;1382;52.142;11.618;2023-06-22T13:37:45;40.00;32.50
2749;DHT22;1382;52.142;11.618;2023-06-22T13:40:14;39.90;30.80
2749;DHT22;1382;52.142;11.618;2023-06-22T13:42:41;39.90;32.70
2749;DHT22;1382;52.142;11.618;2023-06-22T13:45:08;39.90;31.80
2749;DHT22;1382;52.142;11.618;2023-06-22T13:47:35;39.90;31.80
2749;DHT22;1382;52.142;11.618;2023-06-22T13:50:04;39.90;32.00
2749;DHT22;1382;52.142;11.618;2023-06-22T13:52:31;39.80;31.40
2749;DHT22;1382;52.142;11.618;2023-06-22T13:54:58;39.80;31.60
2749;DHT22;1382;52.142;11.618;2023-06-22T13:57:25;39.70;31.60
2749;DHT22;1382;52.142;11.618;2023-06-22T13:59:52;39.60;31.40
2749;DHT22;1382;52.142;11.618;2023-06-22T14:02:19;39.60;31.80
2749;DHT22;1382;52.142;11.618;2023-06-22T14:04:45;39.50;31.60
2749;DHT22;1382;52.142;11.618;2023-06-22T14:07:14;39.40;32.20
2749;DHT22;1382;52.142;11.618;2023-06-22T14:09:40;39.40;32.00
2749;DHT22;1382;52.142;11.618;2023-06-22T14:12:08;39.30;31.80
2749;DHT22;1382;52.142;11.618;2023-06-22T14:14:35;39.20;31.70
2749;DHT22;1382;52.142;11.618;2023-06-22T14:17:02;39.30;32.00
2749;DHT22;1382;52.142;11.618;2023-06-22T14:19:29;39.20;31.90
2749;DHT22;1382;52.142;11.618;2023-06-22T14:21:56;39.20;32.30
2749;DHT22;1382;52.142;11.618;2023-06-22T14:24:24;39.10;31.90
2749;DHT22;1382;52.142;11.618;2023-06-22T14:26:54;39.00;31.20
2749;DHT22;1382;52.142;11.618;2023-06-22T14:29:21;38.70;30.90
2749;DHT22;1382;52.142;11.618;2023-06-22T14:31:49;38.40;31.00
2749;DHT22;1382;52.142;11.618;2023-06-22T14:34:16;38.20;31.60
2749;DHT22;1382;52.142;11.618;2023-06-22T14:36:43;38.20;32.90
2749;DHT22;1382;52.142;11.618;2023-06-22T14:39:09;38.20;32.00
2749;DHT22;1382;52.142;11.618;2023-06-22T14:41:37;38.20;32.20
2749;DHT22;1382;52.142;11.618;2023-06-22T14:44:04;38.10;31.80
2749;DHT22;1382;52.142;11.618;2023-06-22T14:46:31;37.90;32.20
2749;DHT22;1382;52.142;11.618;2023-06-22T14:48:58;37.70;32.60
2749;DHT22;1382;52.142;11.618;2023-06-22T14:51:25;37.60;32.60
2749;DHT22;1382;52.142;11.618;2023-06-22T14:53:52;37.50;33.60
2749;DHT22;1382;52.142;11.618;2023-06-22T14:56:19;37.50;33.10
2749;DHT22;1382;52.142;11.618;2023-06-22T14:58:47;37.50;33.50
2749;DHT22;1382;52.142;11.618;2023-06-22T15:01:14;37.50;33.40
2749;DHT22;1382;52.142;11.618;2023-06-22T15:03:41;37.50;33.80
2749;DHT22;1382;52.142;11.618;2023-06-22T15:06:08;37.40;33.50
2749;DHT22;1382;52.142;11.618;2023-06-22T15:08:37;37.40;33.40
2749;DHT22;1382;52.142;11.618;2023-06-22T15:11:03;37.40;33.60
2749;DHT22;1382;52.142;11.618;2023-06-22T15:13:31;37.30;33.50
2749;DHT22;1382;52.142;11.618;2023-06-22T15:15:59;37.30;34.00
2749;DHT22;1382;52.142;11.618;2023-06-22T15:18:26;37.20;33.70
2749;DHT22;1382;52.142;11.618;2023-06-22T15:20:53;37.20;34.10
2749;DHT22;1382;52.142;11.618;2023-06-22T15:23:20;37.20;34.30
2749;DHT22;1382;52.142;11.618;2023-06-22T15:25:46;37.20;33.80
2749;DHT22;1382;52.142;11.618;2023-06-22T15:28:14;37.10;34.10
2749;DHT22;1382;52.142;11.618;2023-06-22T15:30:40;37.10;34.10
2749;DHT22;1382;52.142;11.618;2023-06-22T15:33:08;37.10;33.70
2749;DHT22;1382;52.142;11.618;2023-06-22T15:35:35;37.00;33.30
2749;DHT22;1382;52.142;11.618;2023-06-22T15:38:02;36.90;33.60
2749;DHT22;1382;52.142;11.618;2023-06-22T15:40:29;36.90;33.80
2749;DHT22;1382;52.142;11.618;2023-06-22T15:42:56;36.90;33.40
2749;DHT22;1382;52.142;11.618;2023-06-22T15:45:25;36.80;33.50